sensor_id;sensor_type;location;lat;lon;timestamp;temperature;humidity
29713;DHT22;16623;53.632;10.016;2023-04-25T00:00:05;8.50;99.90
29713;DHT22;16623;53.632;10.016;2023-04-25T00:02:33;8.50;99.90
29713;DHT22;16623;53.632;10.016;2023-04-25T00:05:00;9.20;99.90
29713;DHT22;16623;53.632;10.016;2023-04-25T00:07:27;8.40;99.90
29713;DHT22;16623;53.632;10.016;2023-04-25T00:09:52;8.40;99.90
29713;DHT22;16623;53.632;10.016;2023-04-25T00:12:18;8.40;99.90
29713;DHT22;16623;53.632;10.016;2023-04-25T00:14:43;8.40;99.90
29713;DHT22;16623;53.632;10.016;2023-04-25T00:17:10;8.30;99.90
29713;DHT22;16623;53.632;10.016;2023-04-25T00:19:36;8.40;99.90
29713;DHT22;16623;53.632;10.016;2023-04-25T00:22:03;8.40;99.90
29713;DHT22;16623;53.632;10.016;2023-04-25T00:24:29;8.40;99.90
29713;DHT22;16623;53.632;10.016;2023-04-25T00:26:55;9.90;99.90
29713;DHT22;16623;53.632;10.016;2023-04-25T00:29:20;8.30;99.90
29713;DHT22;16623;53.632;10.016;2023-04-25T00:31:46;8.30;99.90
29713;DHT22;16623;53.632;10.016;2023-04-25T00:34:11;8.20;99.90
29713;DHT22;16623;53.632;10.016;2023-04-25T00:36:37;8.30;99.90
29713;DHT22;16623;53.632;10.016;2023-04-25T00:39:03;8.20;99.90
29713;DHT22;16623;53.632;10.016;2023-04-25T00:41:30;8.20;99.90
29713;DHT22;16623;53.632;10.016;2023-04-25T00:43:56;8.20;99.90
29713;DHT22;16623;53.632;10.016;2023-04-25T00:46:23;8.20;99.90
29713;DHT22;16623;53.632;10.016;2023-04-25T00:48:48;8.10;99.90
29713;DHT22;16623;53.632;10.016;2023-04-25T00:51:17;8.10;99.90
29713;DHT22;16623;53.632;10.016;2023-04-25T00:53:44;8.10;99.90
29713;DHT22;16623;53.632;10.016;2023-04-25T00:56:10;8.00;99.90
29713;DHT22;16623;53.632;10.016;2023-04-25T00:58:36;8.00;99.90
29713;DHT22;16623;53.632;10.016;2023-04-25T01:01:02;8.00;99.90
29713;DHT22;16623;53.632;10.016;2023-04-25T01:03:28;8.00;99.90
29713;DHT22;16623;53.632;10.016;2023-04-25T01:05:55;9.70;99.90
29713;DHT22;16623;53.632;10.016;2023-04-25T01:08:23;8.00;99.90
29713;DHT22;16623;53.632;10.016;2023-04-25T01:10:51;7.90;99.90
29713;DHT22;16623;53.632;10.016;2023-04-25T01:13:16;8.00;99.90
29713;DHT22;16623;53.632;10.016;2023-04-25T01:15:42;7.90;99.90
29713;DHT22;16623;53.632;10.016;2023-04-25T01:18:07;7.90;99.90
29713;DHT22;16623;53.632;10.016;2023-04-25T01:20:37;8.00;99.90
29713;DHT22;16623;53.632;10.016;2023-04-25T01:23:03;7.90;99.90
29713;DHT22;16623;53.632;10.016;2023-04-25T01:25:30;7.90;99.90
29713;DHT22;16623;53.632;10.016;2023-04-25T01:27:57;7.90;99.90
29713;DHT22;16623;53.632;10.016;2023-04-25T01:30:24;7.90;99.90
29713;DHT22;16623;53.632;10.016;2023-04-25T01:32:51;7.90;99.90
29713;DHT22;16623;53.632;10.016;2023-04-25T01:35:17;7.80;99.90
29713;DHT22;16623;53.632;10.016;2023-04-25T01:37:44;7.80;99.90
29713;DHT22;16623;53.632;10.016;2023-04-25T01:40:11;7.80;99.90
29713;DHT22;16623;53.632;10.016;2023-04-25T01:42:38;7.80;99.90
29713;DHT22;16623;53.632;10.016;2023-04-25T01:45:04;7.80;99.90
29713;DHT22;16623;53.632;10.016;2023-04-25T01:47:30;7.80;99.90
29713;DHT22;16623;53.632;10.016;2023-04-25T01:49:55;8.00;99.90
29713;DHT22;16623;53.632;10.016;2023-04-25T01:52:21;7.80;99.90
29713;DHT22;16623;53.632;10.016;2023-04-25T01:54:47;7.90;99.90
29713;DHT22;16623;53.632;10.016;2023-04-25T01:57:14;7.80;99.90
29713;DHT22;16623;53.632;10.016;2023-04-25T01:59:40;7.90;99.90
29713;DHT22;16623;53.632;10.016;2023-04-25T02:02:06;7.80;99.90
29713;DHT22;16623;53.632;10.016;2023-04-25T02:04:32;7.80;99.90
29713;DHT22;16623;53.632;10.016;2023-04-25T02:06:58;7.80;99.90
29713;DHT22;16623;53.632;10.016;2023-04-25T02:09:23;7.70;99.90
29713;DHT22;16623;53.632;10.016;2023-04-25T02:11:49;7.70;99.90
29713;DHT22;16623;53.632;10.016;2023-04-25T02:14:14;7.70;99.90
29713;DHT22;16623;53.632;10.016;2023-04-25T02:16:40;7.70;99.90
29713;DHT22;16623;53.632;10.016;2023-04-25T02:19:06;7.70;99.90
29713;DHT22;16623;53.632;10.016;2023-04-25T02:21:32;7.70;99.90
29713;DHT22;16623;53.632;10.016;2023-04-25T02:23:57;7.70;99.90
29713;DHT22;16623;53.632;10.016;2023-04-25T02:26:23;8.60;99.90
29713;DHT22;16623;53.632;10.016;2023-04-25T02:28:50;7.70;99.90
29713;DHT22;16623;53.632;10.016;2023-04-25T02:31:15;7.60;99.90
29713;DHT22;16623;53.632;10.016;2023-04-25T02:33:41;7.60;99.90
29713;DHT22;16623;53.632;10.016;2023-04-25T02:36:07;7.60;99.90
29713;DHT22;16623;53.632;10.016;2023-04-25T02:38:32;7.60;99.90
29713;DHT22;16623;53.632;10.016;2023-04-25T02:40:59;7.60;99.90
29713;DHT22;16623;53.632;10.016;2023-04-25T02:43:25;7.60;99.90
29713;DHT22;16623;53.632;10.016;2023-04-25T02:45:51;7.50;99.90
29713;DHT22;16623;53.632;10.016;2023-04-25T02:48:16;7.60;99.90
29713;DHT22;16623;53.632;10.016;2023-04-25T02:50:42;7.60;99.90
29713;DHT22;16623;53.632;10.016;2023-04-25T02:53:07;7.60;99.90
29713;DHT22;16623;53.632;10.016;2023-04-25T02:55:33;7.60;99.90
29713;DHT22;16623;53.632;10.016;2023-04-25T02:57:59;7.50;99.90
29713;DHT22;16623;53.632;10.016;2023-04-25T03:00:24;7.50;99.90
29713;DHT22;16623;53.632;10.016;2023-04-25T03:02:51;7.40;99.90
29713;DHT22;16623;53.632;10.016;2023-04-25T03:05:16;7.30;99.90
29713;DHT22;16623;53.632;10.016;2023-04-25T03:07:42;7.30;99.90
29713;DHT22;16623;53.632;10.016;2023-04-25T03:10:09;7.30;99.90
29713;DHT22;16623;53.632;10.016;2023-04-25T03:12:35;7.30;99.90
29713;DHT22;16623;53.632;10.016;2023-04-25T03:15:01;7.30;99.90
29713;DHT22;16623;53.632;10.016;2023-04-25T03:17:27;7.30;99.90
29713;DHT22;16623;53.632;10.016;2023-04-25T03:19:52;7.30;99.90
29713;DHT22;16623;53.632;10.016;2023-04-25T03:22:18;8.90;99.90
29713;DHT22;16623;53.632;10.016;2023-04-25T03:24:43;7.30;99.90
29713;DHT22;16623;53.632;10.016;2023-04-25T03:27:09;7.20;99.90
29713;DHT22;16623;53.632;10.016;2023-04-25T03:29:35;7.20;99.90
29713;DHT22;16623;53.632;10.016;2023-04-25T03:32:00;7.10;99.90
29713;DHT22;16623;53.632;10.016;2023-04-25T03:34:26;7.10;99.90
29713;DHT22;16623;53.632;10.016;2023-04-25T03:36:52;7.00;99.90
29713;DHT22;16623;53.632;10.016;2023-04-25T03:39:17;6.90;99.90
29713;DHT22;16623;53.632;10.016;2023-04-25T03:41:43;6.80;99.90
29713;DHT22;16623;53.632;10.016;2023-04-25T03:44:08;6.80;99.90
29713;DHT22;16623;53.632;10.016;2023-04-25T03:46:34;6.80;99.90
29713;DHT22;16623;53.632;10.016;2023-04-25T03:48:59;6.70;99.90
29713;DHT22;16623;53.632;10.016;2023-04-25T03:51:25;6.70;99.90
29713;DHT22;16623;53.632;10.016;2023-04-25T03:53:51;6.60;99.90
29713;DHT22;16623;53.632;10.016;2023-04-25T03:56:17;6.60;99.90
29713;DHT22;16623;53.632;10.016;2023-04-25T03:58:43;6.60;99.90
29713;DHT22;16623;53.632;10.016;2023-04-25T04:01:09;6.50;99.90
29713;DHT22;16623;53.632;10.016;2023-04-25T04:03:35;6.60;99.90
29713;DHT22;16623;53.632;10.016;2023-04-25T04:06:03;6.60;99.90
29713;DHT22;16623;53.632;10.016;2023-04-25T04:08:29;8.20;99.90
29713;DHT22;16623;53.632;10.016;2023-04-25T04:10:55;6.60;99.90
29713;DHT22;16623;53.632;10.016;2023-04-25T04:13:21;6.60;99.90
29713;DHT22;16623;53.632;10.016;2023-04-25T04:15:46;6.60;99.90
29713;DHT22;16623;53.632;10.016;2023-04-25T04:18:12;6.60;99.90
29713;DHT22;16623;53.632;10.016;2023-04-25T04:20:37;6.60;99.90
29713;DHT22;16623;53.632;10.016;2023-04-25T04:23:04;6.60;99.90
29713;DHT22;16623;53.632;10.016;2023-04-25T04:25:31;6.60;99.90
29713;DHT22;16623;53.632;10.016;2023-04-25T04:27:56;6.60;99.90
29713;DHT22;16623;53.632;10.016;2023-04-25T04:30:23;6.50;99.90
29713;DHT22;16623;53.632;10.016;2023-04-25T04:32:50;6.60;99.90
29713;DHT22;16623;53.632;10.016;2023-04-25T04:35:15;6.70;99.90
29713;DHT22;16623;53.632;10.016;2023-04-25T04:37:41;6.70;99.90
29713;DHT22;16623;53.632;10.016;2023-04-25T04:40:07;6.70;99.90
29713;DHT22;16623;53.632;10.016;2023-04-25T04:42:33;6.70;99.90
29713;DHT22;16623;53.632;10.016;2023-04-25T04:44:58;6.70;99.90
29713;DHT22;16623;53.632;10.016;2023-04-25T04:47:26;6.70;99.90
29713;DHT22;16623;53.632;10.016;2023-04-25T04:49:56;6.80;99.90
29713;DHT22;16623;53.632;10.016;2023-04-25T04:52:21;6.80;99.90
29713;DHT22;16623;53.632;10.016;2023-04-25T04:54:46;6.80;99.90
29713;DHT22;16623;53.632;10.016;2023-04-25T04:57:12;6.80;99.90
29713;DHT22;16623;53.632;10.016;2023-04-25T04:59:38;6.80;99.90
29713;DHT22;16623;53.632;10.016;2023-04-25T05:02:03;6.80;99.90
29713;DHT22;16623;53.632;10.016;2023-04-25T05:04:29;6.80;99.90
29713;DHT22;16623;53.632;10.016;2023-04-25T05:06:54;6.90;99.90
29713;DHT22;16623;53.632;10.016;2023-04-25T05:09:20;6.80;99.90
29713;DHT22;16623;53.632;10.016;2023-04-25T05:11:46;6.90;99.90
29713;DHT22;16623;53.632;10.016;2023-04-25T05:14:11;6.80;99.90
29713;DHT22;16623;53.632;10.016;2023-04-25T05:16:37;6.80;99.90
29713;DHT22;16623;53.632;10.016;2023-04-25T05:19:02;6.80;99.90
29713;DHT22;16623;53.632;10.016;2023-04-25T05:21:28;6.70;99.90
29713;DHT22;16623;53.632;10.016;2023-04-25T05:23:54;6.60;99.90
29713;DHT22;16623;53.632;10.016;2023-04-25T05:26:19;6.60;99.90
29713;DHT22;16623;53.632;10.016;2023-04-25T05:28:46;6.60;99.90
29713;DHT22;16623;53.632;10.016;2023-04-25T05:33:38;6.60;99.90
29713;DHT22;16623;53.632;10.016;2023-04-25T05:36:04;6.60;99.90
29713;DHT22;16623;53.632;10.016;2023-04-25T05:38:30;6.70;99.90
29713;DHT22;16623;53.632;10.016;2023-04-25T05:40:55;6.70;99.90
29713;DHT22;16623;53.632;10.016;2023-04-25T05:43:21;6.70;99.90
29713;DHT22;16623;53.632;10.016;2023-04-25T05:45:46;6.70;99.90
29713;DHT22;16623;53.632;10.016;2023-04-25T05:48:12;6.70;99.90
29713;DHT22;16623;53.632;10.016;2023-04-25T05:50:37;6.80;99.90
29713;DHT22;16623;53.632;10.016;2023-04-25T05:53:03;6.80;99.90
29713;DHT22;16623;53.632;10.016;2023-04-25T05:55:31;6.70;99.90
29713;DHT22;16623;53.632;10.016;2023-04-25T05:57:59;6.80;99.90
29713;DHT22;16623;53.632;10.016;2023-04-25T06:00:24;6.80;99.90
29713;DHT22;16623;53.632;10.016;2023-04-25T06:02:50;6.90;99.90
29713;DHT22;16623;53.632;10.016;2023-04-25T06:05:16;6.90;99.90
29713;DHT22;16623;53.632;10.016;2023-04-25T06:07:41;6.90;99.90
29713;DHT22;16623;53.632;10.016;2023-04-25T06:10:07;7.10;99.90
29713;DHT22;16623;53.632;10.016;2023-04-25T06:12:33;7.20;99.90
29713;DHT22;16623;53.632;10.016;2023-04-25T06:15:00;7.20;99.90
29713;DHT22;16623;53.632;10.016;2023-04-25T06:17:25;7.20;99.90
29713;DHT22;16623;53.632;10.016;2023-04-25T06:19:50;7.30;99.90
29713;DHT22;16623;53.632;10.016;2023-04-25T06:22:16;7.40;99.90
29713;DHT22;16623;53.632;10.016;2023-04-25T06:24:42;7.50;99.90
29713;DHT22;16623;53.632;10.016;2023-04-25T06:27:07;7.60;99.90
29713;DHT22;16623;53.632;10.016;2023-04-25T06:29:33;7.40;99.90
29713;DHT22;16623;53.632;10.016;2023-04-25T06:31:58;7.60;99.90
29713;DHT22;16623;53.632;10.016;2023-04-25T06:34:24;7.70;99.90
29713;DHT22;16623;53.632;10.016;2023-04-25T06:36:50;7.70;99.90
29713;DHT22;16623;53.632;10.016;2023-04-25T06:39:16;7.70;99.90
29713;DHT22;16623;53.632;10.016;2023-04-25T06:41:42;7.60;99.90
29713;DHT22;16623;53.632;10.016;2023-04-25T06:44:07;7.70;99.90
29713;DHT22;16623;53.632;10.016;2023-04-25T06:46:33;7.70;99.90
29713;DHT22;16623;53.632;10.016;2023-04-25T06:48:58;7.60;99.90
29713;DHT22;16623;53.632;10.016;2023-04-25T06:51:24;7.70;99.90
29713;DHT22;16623;53.632;10.016;2023-04-25T06:53:49;7.70;99.90
29713;DHT22;16623;53.632;10.016;2023-04-25T06:56:15;7.80;99.90
29713;DHT22;16623;53.632;10.016;2023-04-25T06:58:41;7.70;99.90
29713;DHT22;16623;53.632;10.016;2023-04-25T07:01:06;7.80;99.90
29713;DHT22;16623;53.632;10.016;2023-04-25T07:03:32;7.80;99.90
29713;DHT22;16623;53.632;10.016;2023-04-25T07:05:58;7.90;99.90
29713;DHT22;16623;53.632;10.016;2023-04-25T07:08:23;7.90;99.90
29713;DHT22;16623;53.632;10.016;2023-04-25T07:10:49;7.90;99.90
29713;DHT22;16623;53.632;10.016;2023-04-25T07:13:14;9.60;99.90
29713;DHT22;16623;53.632;10.016;2023-04-25T07:15:40;10.00;99.90
29713;DHT22;16623;53.632;10.016;2023-04-25T07:18:06;8.00;99.90
29713;DHT22;16623;53.632;10.016;2023-04-25T07:20:31;7.80;99.90
29713;DHT22;16623;53.632;10.016;2023-04-25T07:22:58;7.20;99.90
29713;DHT22;16623;53.632;10.016;2023-04-25T07:25:23;7.20;99.90
29713;DHT22;16623;53.632;10.016;2023-04-25T07:27:49;7.50;99.90
29713;DHT22;16623;53.632;10.016;2023-04-25T07:30:14;7.10;99.90
29713;DHT22;16623;53.632;10.016;2023-04-25T07:32:40;7.20;99.90
29713;DHT22;16623;53.632;10.016;2023-04-25T07:35:06;7.40;99.90
29713;DHT22;16623;53.632;10.016;2023-04-25T07:37:33;7.60;99.90
29713;DHT22;16623;53.632;10.016;2023-04-25T07:39:59;7.60;99.90
29713;DHT22;16623;53.632;10.016;2023-04-25T07:42:24;7.70;99.90
29713;DHT22;16623;53.632;10.016;2023-04-25T07:44:50;7.80;99.90
29713;DHT22;16623;53.632;10.016;2023-04-25T07:47:17;7.90;99.90
29713;DHT22;16623;53.632;10.016;2023-04-25T07:49:44;8.00;99.90
29713;DHT22;16623;53.632;10.016;2023-04-25T07:52:11;8.10;99.90
29713;DHT22;16623;53.632;10.016;2023-04-25T07:54:36;8.10;99.90
29713;DHT22;16623;53.632;10.016;2023-04-25T07:57:02;8.20;99.90
29713;DHT22;16623;53.632;10.016;2023-04-25T07:59:28;8.50;99.90
29713;DHT22;16623;53.632;10.016;2023-04-25T08:01:53;8.70;99.90
29713;DHT22;16623;53.632;10.016;2023-04-25T08:04:19;8.80;99.90
29713;DHT22;16623;53.632;10.016;2023-04-25T08:06:44;8.90;99.90
29713;DHT22;16623;53.632;10.016;2023-04-25T08:09:11;8.90;99.90
29713;DHT22;16623;53.632;10.016;2023-04-25T08:11:37;8.80;99.90
29713;DHT22;16623;53.632;10.016;2023-04-25T08:14:02;8.70;99.90
29713;DHT22;16623;53.632;10.016;2023-04-25T08:16:28;8.50;99.90
29713;DHT22;16623;53.632;10.016;2023-04-25T08:21:20;8.10;99.90
29713;DHT22;16623;53.632;10.016;2023-04-25T08:23:46;7.50;99.90
29713;DHT22;16623;53.632;10.016;2023-04-25T08:26:12;7.20;99.90
29713;DHT22;16623;53.632;10.016;2023-04-25T08:28:37;7.00;99.90
29713;DHT22;16623;53.632;10.016;2023-04-25T08:31:03;7.00;99.90
29713;DHT22;16623;53.632;10.016;2023-04-25T08:33:29;7.00;99.90
29713;DHT22;16623;53.632;10.016;2023-04-25T08:35:55;7.20;99.90
29713;DHT22;16623;53.632;10.016;2023-04-25T08:38:21;7.50;99.90
29713;DHT22;16623;53.632;10.016;2023-04-25T08:40:49;7.60;99.90
29713;DHT22;16623;53.632;10.016;2023-04-25T08:43:18;7.60;99.90
29713;DHT22;16623;53.632;10.016;2023-04-25T08:45:46;7.70;99.90
29713;DHT22;16623;53.632;10.016;2023-04-25T08:48:14;7.60;99.90
29713;DHT22;16623;53.632;10.016;2023-04-25T08:50:51;7.60;99.90
29713;DHT22;16623;53.632;10.016;2023-04-25T08:53:22;7.50;99.90
29713;DHT22;16623;53.632;10.016;2023-04-25T08:55:50;7.50;99.90
29713;DHT22;16623;53.632;10.016;2023-04-25T08:58:18;7.60;99.90
29713;DHT22;16623;53.632;10.016;2023-04-25T09:00:45;7.90;99.90
29713;DHT22;16623;53.632;10.016;2023-04-25T09:03:11;8.30;99.90
29713;DHT22;16623;53.632;10.016;2023-04-25T09:05:37;8.70;99.90
29713;DHT22;16623;53.632;10.016;2023-04-25T09:08:03;9.00;99.90
29713;DHT22;16623;53.632;10.016;2023-04-25T09:10:28;9.00;99.90
29713;DHT22;16623;53.632;10.016;2023-04-25T09:13:08;9.10;99.90
29713;DHT22;16623;53.632;10.016;2023-04-25T09:15:52;8.90;99.90
29713;DHT22;16623;53.632;10.016;2023-04-25T09:18:29;8.90;99.90
29713;DHT22;16623;53.632;10.016;2023-04-25T09:20:57;8.70;99.90
29713;DHT22;16623;53.632;10.016;2023-04-25T09:23:23;8.70;99.90
29713;DHT22;16623;53.632;10.016;2023-04-25T09:25:51;8.70;99.90
29713;DHT22;16623;53.632;10.016;2023-04-25T09:28:23;8.80;99.90
29713;DHT22;16623;53.632;10.016;2023-04-25T09:30:55;9.10;99.90
29713;DHT22;16623;53.632;10.016;2023-04-25T09:33:33;9.40;99.90
29713;DHT22;16623;53.632;10.016;2023-04-25T09:36:06;9.60;99.90
29713;DHT22;16623;53.632;10.016;2023-04-25T09:38:46;9.90;99.90
29713;DHT22;16623;53.632;10.016;2023-04-25T09:43:38;9.40;99.90
29713;DHT22;16623;53.632;10.016;2023-04-25T09:46:09;8.80;99.90
29713;DHT22;16623;53.632;10.016;2023-04-25T09:48:35;8.60;99.90
29713;DHT22;16623;53.632;10.016;2023-04-25T09:51:12;8.10;99.90
29713;DHT22;16623;53.632;10.016;2023-04-25T09:53:43;8.00;99.90
29713;DHT22;16623;53.632;10.016;2023-04-25T09:56:10;8.00;99.90
29713;DHT22;16623;53.632;10.016;2023-04-25T09:58:38;8.20;99.90
29713;DHT22;16623;53.632;10.016;2023-04-25T10:01:08;8.40;99.90
29713;DHT22;16623;53.632;10.016;2023-04-25T10:03:36;8.80;99.90
29713;DHT22;16623;53.632;10.016;2023-04-25T10:06:04;9.20;99.90
29713;DHT22;16623;53.632;10.016;2023-04-25T10:08:36;9.60;99.90
29713;DHT22;16623;53.632;10.016;2023-04-25T10:11:07;10.10;99.90
29713;DHT22;16623;53.632;10.016;2023-04-25T10:13:34;10.10;99.90
29713;DHT22;16623;53.632;10.016;2023-04-25T10:16:01;10.30;99.90
29713;DHT22;16623;53.632;10.016;2023-04-25T10:18:28;10.80;99.90
29713;DHT22;16623;53.632;10.016;2023-04-25T10:20:55;11.20;99.90
29713;DHT22;16623;53.632;10.016;2023-04-25T10:23:22;11.10;99.90
29713;DHT22;16623;53.632;10.016;2023-04-25T10:25:50;11.10;99.90
29713;DHT22;16623;53.632;10.016;2023-04-25T10:28:16;11.10;99.90
29713;DHT22;16623;53.632;10.016;2023-04-25T10:31:02;11.10;99.90
29713;DHT22;16623;53.632;10.016;2023-04-25T10:33:38;11.00;99.90
29713;DHT22;16623;53.632;10.016;2023-04-25T10:36:15;11.00;99.90
29713;DHT22;16623;53.632;10.016;2023-04-25T10:38:44;11.30;99.90
29713;DHT22;16623;53.632;10.016;2023-04-25T10:41:11;11.70;99.90
29713;DHT22;16623;53.632;10.016;2023-04-25T10:43:39;12.00;99.90
29713;DHT22;16623;53.632;10.016;2023-04-25T10:46:25;12.40;99.90
29713;DHT22;16623;53.632;10.016;2023-04-25T10:48:51;12.80;99.90
29713;DHT22;16623;53.632;10.016;2023-04-25T10:51:25;13.00;99.90
29713;DHT22;16623;53.632;10.016;2023-04-25T10:56:26;12.30;99.90
29713;DHT22;16623;53.632;10.016;2023-04-25T10:59:12;12.10;99.90
29713;DHT22;16623;53.632;10.016;2023-04-25T11:01:40;11.50;99.90
29713;DHT22;16623;53.632;10.016;2023-04-25T11:04:22;11.40;99.90
29713;DHT22;16623;53.632;10.016;2023-04-25T11:09:26;11.10;99.90
29713;DHT22;16623;53.632;10.016;2023-04-25T11:11:54;10.80;99.90
29713;DHT22;16623;53.632;10.016;2023-04-25T11:14:20;10.60;99.90
29713;DHT22;16623;53.632;10.016;2023-04-25T11:16:54;10.10;99.90
29713;DHT22;16623;53.632;10.016;2023-04-25T11:19:23;9.60;99.90
29713;DHT22;16623;53.632;10.016;2023-04-25T11:21:49;9.40;99.90
29713;DHT22;16623;53.632;10.016;2023-04-25T11:24:18;9.10;99.90
29713;DHT22;16623;53.632;10.016;2023-04-25T11:26:47;9.20;99.90
29713;DHT22;16623;53.632;10.016;2023-04-25T11:29:13;9.10;99.90
29713;DHT22;16623;53.632;10.016;2023-04-25T11:31:42;9.00;99.90
29713;DHT22;16623;53.632;10.016;2023-04-25T11:34:08;9.20;99.90
29713;DHT22;16623;53.632;10.016;2023-04-25T11:36:33;9.30;99.90
29713;DHT22;16623;53.632;10.016;2023-04-25T11:38:59;9.40;99.90
29713;DHT22;16623;53.632;10.016;2023-04-25T11:41:25;9.50;99.90
29713;DHT22;16623;53.632;10.016;2023-04-25T11:43:51;9.50;99.90
29713;DHT22;16623;53.632;10.016;2023-04-25T11:46:17;9.70;99.90
29713;DHT22;16623;53.632;10.016;2023-04-25T11:48:44;10.00;99.90
29713;DHT22;16623;53.632;10.016;2023-04-25T11:51:10;10.20;99.90
29713;DHT22;16623;53.632;10.016;2023-04-25T11:53:36;10.50;99.90
29713;DHT22;16623;53.632;10.016;2023-04-25T11:56:10;10.70;99.90
29713;DHT22;16623;53.632;10.016;2023-04-25T12:01:47;11.20;99.90
29713;DHT22;16623;53.632;10.016;2023-04-25T12:04:23;11.20;99.90
29713;DHT22;16623;53.632;10.016;2023-04-25T12:06:53;11.00;99.00
29713;DHT22;16623;53.632;10.016;2023-04-25T12:09:21;11.00;99.60
29713;DHT22;16623;53.632;10.016;2023-04-25T12:11:54;11.20;99.90
29713;DHT22;16623;53.632;10.016;2023-04-25T12:14:25;11.30;99.90
29713;DHT22;16623;53.632;10.016;2023-04-25T12:16:54;11.30;99.90
29713;DHT22;16623;53.632;10.016;2023-04-25T12:19:20;11.20;99.90
29713;DHT22;16623;53.632;10.016;2023-04-25T12:21:46;11.30;99.90
29713;DHT22;16623;53.632;10.016;2023-04-25T12:26:53;11.20;99.90
29713;DHT22;16623;53.632;10.016;2023-04-25T12:29:24;11.40;99.90
29713;DHT22;16623;53.632;10.016;2023-04-25T12:31:51;11.40;99.80
29713;DHT22;16623;53.632;10.016;2023-04-25T12:34:20;11.60;99.80
29713;DHT22;16623;53.632;10.016;2023-04-25T12:36:47;11.70;97.60
29713;DHT22;16623;53.632;10.016;2023-04-25T12:39:16;11.60;97.80
29713;DHT22;16623;53.632;10.016;2023-04-25T12:41:43;11.40;97.30
29713;DHT22;16623;53.632;10.016;2023-04-25T12:44:09;11.20;97.10
29713;DHT22;16623;53.632;10.016;2023-04-25T12:46:35;11.10;96.70
29713;DHT22;16623;53.632;10.016;2023-04-25T12:49:01;11.10;96.50
29713;DHT22;16623;53.632;10.016;2023-04-25T12:51:28;11.10;97.60
29713;DHT22;16623;53.632;10.016;2023-04-25T12:53:54;10.80;98.30
29713;DHT22;16623;53.632;10.016;2023-04-25T12:56:20;10.50;99.30
29713;DHT22;16623;53.632;10.016;2023-04-25T12:58:45;10.20;99.90
29713;DHT22;16623;53.632;10.016;2023-04-25T13:01:11;10.30;99.90
29713;DHT22;16623;53.632;10.016;2023-04-25T13:03:42;10.40;99.90
29713;DHT22;16623;53.632;10.016;2023-04-25T13:06:08;10.50;99.90
29713;DHT22;16623;53.632;10.016;2023-04-25T13:08:33;10.60;99.80
29713;DHT22;16623;53.632;10.016;2023-04-25T13:11:00;10.60;99.40
29713;DHT22;16623;53.632;10.016;2023-04-25T13:13:25;10.50;99.80
29713;DHT22;16623;53.632;10.016;2023-04-25T13:15:52;10.50;99.90
29713;DHT22;16623;53.632;10.016;2023-04-25T13:18:19;10.40;99.90
29713;DHT22;16623;53.632;10.016;2023-04-25T13:20:45;10.30;99.90
29713;DHT22;16623;53.632;10.016;2023-04-25T13:23:11;9.90;99.90
29713;DHT22;16623;53.632;10.016;2023-04-25T13:25:37;9.50;99.90
29713;DHT22;16623;53.632;10.016;2023-04-25T13:28:02;9.30;99.90
29713;DHT22;16623;53.632;10.016;2023-04-25T13:30:29;9.30;99.90
29713;DHT22;16623;53.632;10.016;2023-04-25T13:32:54;9.50;99.90
29713;DHT22;16623;53.632;10.016;2023-04-25T13:35:22;9.70;99.90
29713;DHT22;16623;53.632;10.016;2023-04-25T13:37:47;9.90;99.90
29713;DHT22;16623;53.632;10.016;2023-04-25T13:40:13;10.10;99.90
29713;DHT22;16623;53.632;10.016;2023-04-25T13:42:39;10.30;99.90
29713;DHT22;16623;53.632;10.016;2023-04-25T13:45:06;10.30;99.90
29713;DHT22;16623;53.632;10.016;2023-04-25T13:47:32;10.30;99.90
29713;DHT22;16623;53.632;10.016;2023-04-25T13:49:57;9.90;99.90
29713;DHT22;16623;53.632;10.016;2023-04-25T13:52:23;9.40;99.90
29713;DHT22;16623;53.632;10.016;2023-04-25T13:54:52;9.20;99.90
29713;DHT22;16623;53.632;10.016;2023-04-25T13:57:18;8.90;99.90
29713;DHT22;16623;53.632;10.016;2023-04-25T13:59:43;8.80;99.90
29713;DHT22;16623;53.632;10.016;2023-04-25T14:02:09;8.70;99.90
29713;DHT22;16623;53.632;10.016;2023-04-25T14:04:35;8.70;99.90
29713;DHT22;16623;53.632;10.016;2023-04-25T14:07:00;8.90;99.90
29713;DHT22;16623;53.632;10.016;2023-04-25T14:09:27;8.90;99.90
29713;DHT22;16623;53.632;10.016;2023-04-25T14:11:53;9.10;99.90
29713;DHT22;16623;53.632;10.016;2023-04-25T14:14:19;9.10;99.90
29713;DHT22;16623;53.632;10.016;2023-04-25T14:16:45;9.10;99.90
29713;DHT22;16623;53.632;10.016;2023-04-25T14:19:11;9.20;99.90
29713;DHT22;16623;53.632;10.016;2023-04-25T14:21:36;9.40;99.90
29713;DHT22;16623;53.632;10.016;2023-04-25T14:24:03;9.50;99.90
29713;DHT22;16623;53.632;10.016;2023-04-25T14:26:30;9.50;99.90
29713;DHT22;16623;53.632;10.016;2023-04-25T14:31:21;9.50;99.90
29713;DHT22;16623;53.632;10.016;2023-04-25T14:33:47;9.50;99.90
29713;DHT22;16623;53.632;10.016;2023-04-25T14:36:13;9.50;99.90
29713;DHT22;16623;53.632;10.016;2023-04-25T14:38:40;9.50;99.90
29713;DHT22;16623;53.632;10.016;2023-04-25T14:41:05;9.60;99.90
29713;DHT22;16623;53.632;10.016;2023-04-25T14:43:31;9.70;99.90
29713;DHT22;16623;53.632;10.016;2023-04-25T14:45:56;9.70;99.90
29713;DHT22;16623;53.632;10.016;2023-04-25T14:48:22;9.60;99.90
29713;DHT22;16623;53.632;10.016;2023-04-25T14:50:48;9.50;99.90
29713;DHT22;16623;53.632;10.016;2023-04-25T14:53:14;9.70;99.90
29713;DHT22;16623;53.632;10.016;2023-04-25T14:55:40;9.80;99.90
29713;DHT22;16623;53.632;10.016;2023-04-25T14:58:06;9.90;99.90
29713;DHT22;16623;53.632;10.016;2023-04-25T15:00:32;10.00;99.90
29713;DHT22;16623;53.632;10.016;2023-04-25T15:02:58;10.20;99.90
29713;DHT22;16623;53.632;10.016;2023-04-25T15:05:24;10.10;99.90
29713;DHT22;16623;53.632;10.016;2023-04-25T15:07:50;10.10;99.90
29713;DHT22;16623;53.632;10.016;2023-04-25T15:10:17;9.80;99.90
29713;DHT22;16623;53.632;10.016;2023-04-25T15:12:44;9.70;99.90
29713;DHT22;16623;53.632;10.016;2023-04-25T15:15:10;9.60;99.90
29713;DHT22;16623;53.632;10.016;2023-04-25T15:17:41;9.50;99.90
29713;DHT22;16623;53.632;10.016;2023-04-25T15:20:09;9.50;99.90
29713;DHT22;16623;53.632;10.016;2023-04-25T15:22:42;9.40;99.90
29713;DHT22;16623;53.632;10.016;2023-04-25T15:25:11;9.60;99.90
29713;DHT22;16623;53.632;10.016;2023-04-25T15:27:38;9.70;99.90
29713;DHT22;16623;53.632;10.016;2023-04-25T15:30:08;9.90;99.90
29713;DHT22;16623;53.632;10.016;2023-04-25T15:32:34;10.00;99.90
29713;DHT22;16623;53.632;10.016;2023-04-25T15:35:04;10.00;99.90
29713;DHT22;16623;53.632;10.016;2023-04-25T15:37:31;9.90;99.90
29713;DHT22;16623;53.632;10.016;2023-04-25T15:40:08;9.80;99.90
29713;DHT22;16623;53.632;10.016;2023-04-25T15:42:41;9.70;99.90
29713;DHT22;16623;53.632;10.016;2023-04-25T15:45:08;9.60;99.90